sensor_id;sensor_type;location;lat;lon;timestamp;pressure;altitude;pressure_sealevel;temperature;humidity
22018;BME280;11173;51.050;7.108;2023-04-05T00:06:58;67552.56;;;-149.45;100.00
22018;BME280;11173;51.050;7.108;2023-04-05T00:16:58;67552.56;;;-149.45;100.00
22018;BME280;11173;51.050;7.108;2023-04-05T00:26:59;67552.56;;;-149.45;100.00
22018;BME280;11173;51.050;7.108;2023-04-05T00:37:00;67552.56;;;-149.45;100.00
22018;BME280;11173;51.050;7.108;2023-04-05T00:47:02;67552.56;;;-149.45;100.00
22018;BME280;11173;51.050;7.108;2023-04-05T00:57:02;67552.56;;;-149.45;100.00
22018;BME280;11173;51.050;7.108;2023-04-05T01:07:13;67552.56;;;-149.45;100.00
22018;BME280;11173;51.050;7.108;2023-04-05T01:17:18;67552.56;;;-149.45;100.00
22018;BME280;11173;51.050;7.108;2023-04-05T01:37:56;67552.56;;;-149.45;100.00
22018;BME280;11173;51.050;7.108;2023-04-05T01:47:58;67552.56;;;-149.45;100.00
22018;BME280;11173;51.050;7.108;2023-04-05T01:58:00;67552.56;;;-149.45;100.00
22018;BME280;11173;51.050;7.108;2023-04-05T02:08:00;67552.56;;;-149.45;100.00
22018;BME280;11173;51.050;7.108;2023-04-05T02:18:01;67552.56;;;-149.45;100.00
22018;BME280;11173;51.050;7.108;2023-04-05T02:28:01;67552.56;;;-149.45;100.00
22018;BME280;11173;51.050;7.108;2023-04-05T02:38:03;67552.56;;;-149.45;100.00
22018;BME280;11173;51.050;7.108;2023-04-05T02:48:03;67552.56;;;-149.45;100.00
22018;BME280;11173;51.050;7.108;2023-04-05T02:58:04;67552.56;;;-149.45;100.00
22018;BME280;11173;51.050;7.108;2023-04-05T03:08:04;67552.56;;;-149.45;100.00
22018;BME280;11173;51.050;7.108;2023-04-05T03:18:05;67552.56;;;-149.45;100.00
22018;BME280;11173;51.050;7.108;2023-04-05T03:28:06;67552.56;;;-149.45;100.00
22018;BME280;11173;51.050;7.108;2023-04-05T03:38:07;67552.56;;;-149.45;100.00
22018;BME280;11173;51.050;7.108;2023-04-05T03:48:08;67552.56;;;-149.45;100.00
22018;BME280;11173;51.050;7.108;2023-04-05T03:58:08;67552.56;;;-149.45;100.00
22018;BME280;11173;51.050;7.108;2023-04-05T04:08:08;67552.56;;;-149.45;100.00
22018;BME280;11173;51.050;7.108;2023-04-05T04:18:09;67552.56;;;-149.45;100.00
22018;BME280;11173;51.050;7.108;2023-04-05T04:28:09;67552.56;;;-149.45;100.00
22018;BME280;11173;51.050;7.108;2023-04-05T04:38:11;67552.56;;;-149.45;100.00
22018;BME280;11173;51.050;7.108;2023-04-05T04:48:17;67552.56;;;-149.45;100.00
22018;BME280;11173;51.050;7.108;2023-04-05T04:58:18;67552.56;;;-149.45;100.00
22018;BME280;11173;51.050;7.108;2023-04-05T05:08:18;67552.56;;;-149.45;100.00
22018;BME280;11173;51.050;7.108;2023-04-05T05:18:19;67552.56;;;-149.45;100.00
22018;BME280;11173;51.050;7.108;2023-04-05T05:28:23;67552.56;;;-149.45;100.00
22018;BME280;11173;51.050;7.108;2023-04-05T05:38:24;67552.56;;;-149.45;100.00
22018;BME280;11173;51.050;7.108;2023-04-05T05:48:24;67552.56;;;-149.45;100.00
22018;BME280;11173;51.050;7.108;2023-04-05T05:58:25;67552.56;;;-149.45;100.00
22018;BME280;11173;51.050;7.108;2023-04-05T06:08:25;67552.56;;;-149.45;100.00
22018;BME280;11173;51.050;7.108;2023-04-05T06:18:29;67552.56;;;-149.45;100.00
22018;BME280;11173;51.050;7.108;2023-04-05T06:28:29;67552.56;;;-149.45;100.00
22018;BME280;11173;51.050;7.108;2023-04-05T06:38:30;67552.56;;;-149.45;100.00
22018;BME280;11173;51.050;7.108;2023-04-05T06:48:32;67552.56;;;-149.45;100.00
22018;BME280;11173;51.050;7.108;2023-04-05T06:58:32;67552.56;;;-149.45;100.00
22018;BME280;11173;51.050;7.108;2023-04-05T07:08:33;67552.56;;;-149.45;100.00
22018;BME280;11173;51.050;7.108;2023-04-05T07:18:33;67552.56;;;-149.45;100.00
22018;BME280;11173;51.050;7.108;2023-04-05T07:28:34;67552.56;;;-149.45;100.00
22018;BME280;11173;51.050;7.108;2023-04-05T07:38:34;67552.56;;;-149.45;100.00
22018;BME280;11173;51.050;7.108;2023-04-05T07:48:35;100117.59;;;3.17;57.18
22018;BME280;11173;51.050;7.108;2023-04-05T07:58:35;100127.94;;;3.40;57.29
22018;BME280;11173;51.050;7.108;2023-04-05T08:08:40;100116.13;;;3.58;55.99
22018;BME280;11173;51.050;7.108;2023-04-05T08:18:40;100113.09;;;3.83;55.50
22018;BME280;11173;51.050;7.108;2023-04-05T08:28:41;100112.44;;;4.09;56.21
22018;BME280;11173;51.050;7.108;2023-04-05T08:38:41;100107.75;;;4.33;56.49
22018;BME280;11173;51.050;7.108;2023-04-05T08:48:42;100108.84;;;4.51;56.06
22018;BME280;11173;51.050;7.108;2023-04-05T08:58:47;100109.63;;;4.75;56.75
22018;BME280;11173;51.050;7.108;2023-04-05T09:08:52;100107.59;;;4.98;54.47
22018;BME280;11173;51.050;7.108;2023-04-05T09:18:52;100099.22;;;5.18;56.13
22018;BME280;11173;51.050;7.108;2023-04-05T09:28:53;100097.63;;;5.44;56.41
22018;BME280;11173;51.050;7.108;2023-04-05T09:39:03;100082.13;;;5.66;53.19
22018;BME280;11173;51.050;7.108;2023-04-05T09:49:04;100087.84;;;5.84;53.46
22018;BME280;11173;51.050;7.108;2023-04-05T09:59:08;100083.72;;;6.04;52.71
22018;BME280;11173;51.050;7.108;2023-04-05T10:09:10;100069.56;;;6.09;47.12
22018;BME280;11173;51.050;7.108;2023-04-05T10:19:53;100065.03;;;6.31;49.59
22018;BME280;11173;51.050;7.108;2023-04-05T10:30:03;100069.91;;;6.45;41.27
22018;BME280;11173;51.050;7.108;2023-04-05T10:40:07;100055.06;;;6.71;45.78
22018;BME280;11173;51.050;7.108;2023-04-05T10:50:11;100044.91;;;6.90;49.99
22018;BME280;11173;51.050;7.108;2023-04-05T11:00:15;100039.47;;;7.01;50.50
22018;BME280;11173;51.050;7.108;2023-04-05T11:10:17;100024.13;;;7.21;51.11
22018;BME280;11173;51.050;7.108;2023-04-05T11:20:18;100019.84;;;7.38;51.15
22018;BME280;11173;51.050;7.108;2023-04-05T11:30:45;100009.63;;;7.53;51.55
22018;BME280;11173;51.050;7.108;2023-04-05T11:40:46;100008.47;;;7.61;50.76
22018;BME280;11173;51.050;7.108;2023-04-05T11:50:46;100008.13;;;7.77;52.40
22018;BME280;11173;51.050;7.108;2023-04-05T12:00:57;99988.31;;;7.79;51.22
22018;BME280;11173;51.050;7.108;2023-04-05T12:10:58;99986.34;;;7.97;48.98
22018;BME280;11173;51.050;7.108;2023-04-05T12:21:11;99975.66;;;8.28;49.86
22018;BME280;11173;51.050;7.108;2023-04-05T12:31:12;99971.31;;;8.30;49.78
22018;BME280;11173;51.050;7.108;2023-04-05T12:41:12;99964.56;;;8.28;48.84
22018;BME280;11173;51.050;7.108;2023-04-05T12:51:14;99955.41;;;8.38;50.33
22018;BME280;11173;51.050;7.108;2023-04-05T13:01:15;99949.06;;;8.59;49.17
22018;BME280;11173;51.050;7.108;2023-04-05T13:11:19;99928.38;;;8.78;49.78
22018;BME280;11173;51.050;7.108;2023-04-05T13:21:19;99920.78;;;9.00;50.03
22018;BME280;11173;51.050;7.108;2023-04-05T13:31:20;99913.19;;;9.15;50.39
22018;BME280;11173;51.050;7.108;2023-04-05T13:41:20;99904.00;;;9.25;48.31
22018;BME280;11173;51.050;7.108;2023-04-05T13:51:20;99896.78;;;9.39;48.07
22018;BME280;11173;51.050;7.108;2023-04-05T14:01:21;99891.53;;;9.51;48.24
22018;BME280;11173;51.050;7.108;2023-04-05T14:11:21;99882.03;;;9.45;43.26
22018;BME280;11173;51.050;7.108;2023-04-05T14:21:25;99860.53;;;9.49;47.57
22018;BME280;11173;51.050;7.108;2023-04-05T14:31:26;99849.78;;;9.55;43.88
22018;BME280;11173;51.050;7.108;2023-04-05T14:41:27;99841.72;;;9.68;45.65
22018;BME280;11173;51.050;7.108;2023-04-05T14:51:27;99824.72;;;9.62;46.76
22018;BME280;11173;51.050;7.108;2023-04-05T15:01:28;99833.75;;;9.70;48.16
22018;BME280;11173;51.050;7.108;2023-04-05T15:11:28;99819.53;;;9.64;46.74
22018;BME280;11173;51.050;7.108;2023-04-05T15:21:29;99813.97;;;9.64;46.16
22018;BME280;11173;51.050;7.108;2023-04-05T15:31:32;99808.31;;;9.71;48.75
22018;BME280;11173;51.050;7.108;2023-04-05T15:41:33;99802.69;;;9.79;47.75
22018;BME280;11173;51.050;7.108;2023-04-05T15:51:34;99791.47;;;9.89;49.43
22018;BME280;11173;51.050;7.108;2023-04-05T16:01:38;99780.31;;;9.93;46.65
22018;BME280;11173;51.050;7.108;2023-04-05T16:11:38;99773.13;;;9.92;47.97
22018;BME280;11173;51.050;7.108;2023-04-05T16:21:39;99776.34;;;9.90;48.85
22018;BME280;11173;51.050;7.108;2023-04-05T16:31:39;99775.25;;;9.81;48.22
22018;BME280;11173;51.050;7.108;2023-04-05T16:41:39;99767.88;;;9.63;49.47
22018;BME280;11173;51.050;7.108;2023-04-05T16:51:40;99769.63;;;9.46;47.18
22018;BME280;11173;51.050;7.108;2023-04-05T17:01:40;99766.53;;;9.30;50.73
22018;BME280;11173;51.050;7.108;2023-04-05T17:11:41;99777.78;;;9.12;50.53
22018;BME280;11173;51.050;7.108;2023-04-05T17:21:42;99767.59;;;8.94;50.12
22018;BME280;11173;51.050;7.108;2023-04-05T17:31:46;99767.72;;;8.69;48.69
22018;BME280;11173;51.050;7.108;2023-04-05T17:41:46;99772.97;;;8.46;49.32
22018;BME280;11173;51.050;7.108;2023-04-05T17:51:47;99770.31;;;8.17;51.30
22018;BME280;11173;51.050;7.108;2023-04-05T18:01:48;99775.56;;;7.83;50.80
22018;BME280;11173;51.050;7.108;2023-04-05T18:11:52;99778.34;;;7.40;50.90
22018;BME280;11173;51.050;7.108;2023-04-05T18:21:53;99786.97;;;6.91;51.95
22018;BME280;11173;51.050;7.108;2023-04-05T18:31:54;99782.84;;;6.42;52.44
22018;BME280;11173;51.050;7.108;2023-04-05T18:41:54;99792.97;;;6.09;51.97
22018;BME280;11173;51.050;7.108;2023-04-05T18:51:55;99794.00;;;5.83;52.71
22018;BME280;11173;51.050;7.108;2023-04-05T19:01:55;99799.75;;;5.60;52.77
22018;BME280;11173;51.050;7.108;2023-04-05T19:11:56;99804.38;;;5.45;53.05
22018;BME280;11173;51.050;7.108;2023-04-05T19:21:56;99807.81;;;5.35;53.20
22018;BME280;11173;51.050;7.108;2023-04-05T19:31:57;99810.03;;;5.22;52.57
22018;BME280;11173;51.050;7.108;2023-04-05T19:41:57;99805.63;;;5.14;53.28
22018;BME280;11173;51.050;7.108;2023-04-05T19:51:57;99800.81;;;5.04;53.04
22018;BME280;11173;51.050;7.108;2023-04-05T20:01:59;99806.91;;;4.86;52.55
22018;BME280;11173;51.050;7.108;2023-04-05T20:12:01;99805.53;;;4.66;52.70
22018;BME280;11173;51.050;7.108;2023-04-05T20:22:06;99796.31;;;4.54;53.39
22018;BME280;11173;51.050;7.108;2023-04-05T20:32:07;99804.84;;;4.42;53.30
22018;BME280;11173;51.050;7.108;2023-04-05T20:42:07;99785.72;;;4.26;53.41
22018;BME280;11173;51.050;7.108;2023-04-05T20:52:09;99788.66;;;4.10;53.15
22018;BME280;11173;51.050;7.108;2023-04-05T21:02:10;99777.56;;;3.76;50.40
22018;BME280;11173;51.050;7.108;2023-04-05T21:12:11;99778.25;;;3.43;50.09
22018;BME280;11173;51.050;7.108;2023-04-05T21:22:11;99768.34;;;3.15;51.03
22018;BME280;11173;51.050;7.108;2023-04-05T21:32:12;99770.03;;;3.01;50.92
22018;BME280;11173;51.050;7.108;2023-04-05T21:42:12;67552.56;;;-149.45;100.00
22018;BME280;11173;51.050;7.108;2023-04-05T21:52:13;67552.56;;;-149.45;100.00
22018;BME280;11173;51.050;7.108;2023-04-05T22:02:13;67552.56;;;-149.45;100.00
22018;BME280;11173;51.050;7.108;2023-04-05T22:12:13;67552.56;;;-149.45;100.00
22018;BME280;11173;51.050;7.108;2023-04-05T22:22:15;67552.56;;;-149.45;100.00
22018;BME280;11173;51.050;7.108;2023-04-05T22:32:16;67552.56;;;-149.45;100.00
22018;BME280;11173;51.050;7.108;2023-04-05T22:42:16;67552.56;;;-149.45;100.00
22018;BME280;11173;51.050;7.108;2023-04-05T22:52:16;67552.56;;;-149.45;100.00
22018;BME280;11173;51.050;7.108;2023-04-05T23:02:17;67552.56;;;-149.45;100.00
22018;BME280;11173;51.050;7.108;2023-04-05T23:12:17;67552.56;;;-149.45;100.00
22018;BME280;11173;51.050;7.108;2023-04-05T23:22:18;67552.56;;;-149.45;100.00
22018;BME280;11173;51.050;7.108;2023-04-05T23:32:18;67552.56;;;-149.45;100.00
22018;BME280;11173;51.050;7.108;2023-04-05T23:42:19;67552.56;;;-149.45;100.00
22018;BME280;11173;51.050;7.108;2023-04-05T23:52:19;67552.56;;;-149.45;100.00
